Meductic, Canada
Current Conditions -  °F | °C
As of 10:53 AM on Tuesday 21 Oct 2014 (Local Time) from KHUL Reporting Station
Scattered Clouds Scattered Clouds  
Wind Chill: 40°   Ceiling: Unl
Heat Index: 40°   Visibility: 10mi
Dew Point: 33°   Wind: 3mph
Humidity: 77%   Direction: 360°N
Pressure: 30.1"   Gusts: NA
Location:  46°N, 67.47°W
Report Text: KHUL 211353Z AUTO 36003KT 10SM SCT048 04/01 A3010 RMK AO2 SLP197 T00440006
Loading
Personal Weather Stations






























Interactive Weather Map
Tropical Storm Tracking
New forecast layout! Learn more

10-Day Weather Forecast

Advertisements
Track Severe Weather on mobile